Pink Coral — 9HPY9 — position and weather

sailwx.info

Track history (hours):
 
Tides and Currents Weather Stations Pressure Air Temp Water Temp Dewpoint Dewpoint Depression Visibility Wind Speed Wind Dir Waves Ship Positions

Pink Coral

Last reported at 2014-Sep-16 00:26 UTC. Time now 2014-Sep-22 08:12 UTC.
Position N 41°01' E 028°60'.

Length 183 m; draft 8.6 m.

Type: Tanker. MMSI: 249344000.

Date/timePositionNaut miles runAvg speedWind from/ knotsBaromVisibWave heightAir tempDewpointWater temp
2014-Sep-16 00:26N 41°01' E 028°60'7 7.6
2014-Sep-15 23:31N 40°55' E 028°56'4 0.5
2014-Sep-15 16:30N 40°56' E 028°51'0 0.0
2014-Sep-15 15:12N 40°56' E 028°51'0 0.0
2014-Sep-15 10:18N 40°56' E 028°51'0 0.1
2014-Sep-15 09:30N 40°56' E 028°51'4 4.6
2014-Sep-15 08:32N 40°54' E 028°57'1111.1
2014-Sep-15 07:33N 40°44' E 028°53'1 0.8
2014-Sep-15 06:14N 40°45' E 028°52'3 1.7
2014-Sep-15 04:33N 40°48' E 028°52'1111.1
2014-Sep-15 03:33N 40°50' E 028°37'158 9.7
2014-Sep-14 11:17N 39°31' E 025°39'1012.4
2014-Sep-14 10:27N 39°22' E 025°33'2412.5
2014-Sep-14 08:31N 39°00' E 025°19'1412.2
2014-Sep-14 07:20N 38°47' E 025°10'5912.3
2014-Sep-14 02:31N 37°55' E 024°36'1313.0
2014-Sep-14 01:33N 37°46' E 024°24'5312.4
2014-Sep-13 21:18N 37°03' E 023°45'1312.9
2014-Sep-13 20:16N 36°52' E 023°36'1013.3
2014-Sep-13 19:32N 36°44' E 023°30'1912.8
2014-Sep-13 18:04N 36°28' E 023°17'812.5
2014-Sep-13 17:27N 36°23' E 023°10'1212.9
2014-Sep-13 16:33N 36°24' E 022°56'  
2014-Sep-08 13:26N 36°26' E 015°17'1212.9
2014-Sep-08 12:31N 36°16' E 015°10'1111.3
2014-Sep-08 11:33N 36°06' E 015°04'1312.8
2014-Sep-08 10:34N 35°55' E 014°56'11 9.9
2014-Sep-08 09:27N 35°45' E 014°52'1 0.1
2014-Sep-07 23:16N 35°46' E 014°51'0 0.0
2014-Sep-07 17:31N 35°46' E 014°51'0 0.0
2014-Sep-07 16:31N 35°46' E 014°51'0 0.0
2014-Sep-07 15:31N 35°46' E 014°51'0 0.0
2014-Sep-07 14:25N 35°46' E 014°51'0 0.0
2014-Sep-07 13:31N 35°46' E 014°51'0 0.0
2014-Sep-07 12:25N 35°46' E 014°51'0 0.0
2014-Sep-07 11:33N 35°46' E 014°51'1 1.4
2014-Sep-07 10:33N 35°45' E 014°52'5 4.4
2014-Sep-07 09:27N 35°43' E 014°58'  
Track history (hours):
 
Tides and Currents Weather Stations Pressure Air Temp Water Temp Dewpoint Dewpoint Depression Visibility Wind Speed Wind Dir Waves Ship Positions

Pink Coral

Last reported at 2014-Sep-16 00:26 UTC. Time now 2014-Sep-22 08:12 UTC.
Position N 41°01' E 028°60'.

Length 183 m; draft 8.6 m.

Type: Tanker. MMSI: 249344000.

Date/timePositionNaut miles runAvg speedWind from/ knotsBaromVisibWave heightAir tempDewpointWater temp
2014-Sep-16 00:26N 41°01' E 028°60'7 7.6
2014-Sep-15 23:31N 40°55' E 028°56'4 0.5
2014-Sep-15 16:30N 40°56' E 028°51'0 0.0
2014-Sep-15 15:12N 40°56' E 028°51'0 0.0
2014-Sep-15 10:18N 40°56' E 028°51'0 0.1
2014-Sep-15 09:30N 40°56' E 028°51'4 4.6
2014-Sep-15 08:32N 40°54' E 028°57'1111.1
2014-Sep-15 07:33N 40°44' E 028°53'1 0.8
2014-Sep-15 06:14N 40°45' E 028°52'3 1.7
2014-Sep-15 04:33N 40°48' E 028°52'1111.1
2014-Sep-15 03:33N 40°50' E 028°37'158 9.7
2014-Sep-14 11:17N 39°31' E 025°39'1012.4
2014-Sep-14 10:27N 39°22' E 025°33'2412.5
2014-Sep-14 08:31N 39°00' E 025°19'1412.2
2014-Sep-14 07:20N 38°47' E 025°10'5912.3
2014-Sep-14 02:31N 37°55' E 024°36'1313.0
2014-Sep-14 01:33N 37°46' E 024°24'5312.4
2014-Sep-13 21:18N 37°03' E 023°45'1312.9
2014-Sep-13 20:16N 36°52' E 023°36'1013.3
2014-Sep-13 19:32N 36°44' E 023°30'1912.8
2014-Sep-13 18:04N 36°28' E 023°17'812.5
2014-Sep-13 17:27N 36°23' E 023°10'1212.9
2014-Sep-13 16:33N 36°24' E 022°56'  
2014-Sep-08 13:26N 36°26' E 015°17'1212.9
2014-Sep-08 12:31N 36°16' E 015°10'1111.3
2014-Sep-08 11:33N 36°06' E 015°04'1312.8
2014-Sep-08 10:34N 35°55' E 014°56'11 9.9
2014-Sep-08 09:27N 35°45' E 014°52'1 0.1
2014-Sep-07 23:16N 35°46' E 014°51'0 0.0
2014-Sep-07 17:31N 35°46' E 014°51'0 0.0
2014-Sep-07 16:31N 35°46' E 014°51'0 0.0
2014-Sep-07 15:31N 35°46' E 014°51'0 0.0
2014-Sep-07 14:25N 35°46' E 014°51'0 0.0
2014-Sep-07 13:31N 35°46' E 014°51'0 0.0
2014-Sep-07 12:25N 35°46' E 014°51'0 0.0
2014-Sep-07 11:33N 35°46' E 014°51'1 1.4
2014-Sep-07 10:33N 35°45' E 014°52'5 4.4
2014-Sep-07 09:27N 35°43' E 014°58'  

Dump ship's entire track history